Time;durP1;ratioP1;P1;durP2;ratioP2;P2;SDS_P1;SDS_P2;PMS_P1;PMS_P2;Temp;Humidity;BMP_temperature;BMP_pressure;BME280_temperature;BME280_humidity;BME280_pressure;Samples;Min_cycle;Max_cycle;Signal;HPM_P1;HPM_P2
2023/01/24 00:01:24;;;;;;;21.27;15.27;;;2.30;99.90;;;;;;5045219;28;20638;-57
2023/01/24 00:03:50;;;;;;;27.07;16.93;;;2.30;99.90;;;;;;5044764;28;20202;-57
2023/01/24 00:06:16;;;;;;;23.37;15.17;;;2.30;99.90;;;;;;5044319;28;20432;-58
2023/01/24 00:08:41;;;;;;;25.17;14.93;;;2.30;99.90;;;;;;5044477;28;20178;-58
2023/01/24 00:11:09;;;;;;;21.50;15.60;;;2.20;99.90;;;;;;5044684;28;20524;-58
2023/01/24 00:13:36;;;;;;;23.20;16.37;;;2.20;99.90;;;;;;5044642;28;20191;-57
2023/01/24 00:16:22;;;;;;;20.70;13.57;;;2.30;99.90;;;;;;5044769;28;20964;-58
2023/01/24 00:18:48;;;;;;;23.13;16.50;;;2.20;99.90;;;;;;5044122;28;20282;-58
2023/01/24 00:21:16;;;;;;;19.67;12.83;;;2.20;99.90;;;;;;5044504;28;20198;-58
2023/01/24 00:23:44;;;;;;;20.27;14.20;;;2.20;99.90;;;;;;5044364;28;20186;-63
2023/01/24 00:26:11;;;;;;;29.97;20.60;;;2.20;99.90;;;;;;5041249;28;20193;-60
2023/01/24 00:28:36;;;;;;;22.83;15.50;;;2.20;99.90;;;;;;5044047;28;20186;-57
2023/01/24 00:31:03;;;;;;;18.53;13.73;;;2.30;99.90;;;;;;5044086;28;20201;-58
2023/01/24 00:33:29;;;;;;;21.00;15.33;;;2.30;99.90;;;;;;5041784;28;20174;-59
2023/01/24 00:35:54;;;;;;;19.40;13.83;;;2.20;99.90;;;;;;5044396;28;20720;-57
2023/01/24 00:38:21;;;;;;;18.10;13.80;;;2.20;99.90;;;;;;5044894;28;20850;-57
2023/01/24 00:40:46;;;;;;;20.33;14.33;;;2.20;99.90;;;;;;5043459;28;20202;-58
2023/01/24 00:43:12;;;;;;;20.77;13.73;;;2.10;99.90;;;;;;5044794;28;20236;-58
2023/01/24 00:45:38;;;;;;;20.73;13.30;;;2.10;99.90;;;;;;5044653;28;20665;-58
2023/01/24 00:48:05;;;;;;;23.50;14.63;;;2.10;99.90;;;;;;5044092;28;20521;-59
2023/01/24 00:50:30;;;;;;;18.90;13.87;;;2.10;99.90;;;;;;5038794;28;20201;-58
2023/01/24 00:52:56;;;;;;;19.27;13.77;;;2.10;99.90;;;;;;5038023;28;20194;-58
2023/01/24 00:55:22;;;;;;;19.47;14.87;;;2.10;99.90;;;;;;5026544;28;20189;-57
2023/01/24 00:57:47;;;;;;;26.43;17.90;;;2.10;99.90;;;;;;5044747;28;20235;-57
2023/01/24 01:00:13;;;;;;;22.97;16.97;;;2.00;99.90;;;;;;5044982;28;20236;-58
2023/01/24 01:02:39;;;;;;;21.87;15.50;;;2.10;99.90;;;;;;5034434;28;20646;-57
2023/01/24 01:05:05;;;;;;;30.13;21.80;;;2.10;99.90;;;;;;5024376;28;20665;-57
2023/01/24 01:07:30;;;;;;;25.17;18.53;;;2.10;99.90;;;;;;5024796;28;20185;-58
2023/01/24 01:09:56;;;;;;;20.80;15.13;;;2.00;99.90;;;;;;5025092;28;20561;-58
2023/01/24 01:12:21;;;;;;;25.73;16.70;;;2.00;99.90;;;;;;5024729;28;20273;-58
2023/01/24 01:14:47;;;;;;;18.17;13.33;;;2.00;99.90;;;;;;5024306;28;20723;-57
2023/01/24 01:17:12;;;;;;;16.77;13.80;;;2.00;99.90;;;;;;5024263;28;20182;-58
2023/01/24 01:19:38;;;;;;;18.17;14.23;;;2.00;99.90;;;;;;5023444;28;20206;-58
2023/01/24 01:22:03;;;;;;;17.43;12.73;;;1.90;99.90;;;;;;5037563;28;20236;-57
2023/01/24 01:24:29;;;;;;;16.70;12.30;;;1.90;99.90;;;;;;5052698;28;20202;-57
2023/01/24 01:26:54;;;;;;;19.20;13.27;;;1.90;99.90;;;;;;5052340;28;20594;-57
2023/01/24 01:29:20;;;;;;;21.30;12.53;;;1.90;99.90;;;;;;5052827;28;20199;-57
2023/01/24 01:31:45;;;;;;;18.90;12.27;;;1.90;99.90;;;;;;5054667;28;20250;-57
2023/01/24 01:34:11;;;;;;;18.30;13.47;;;1.90;99.90;;;;;;5044609;28;20205;-57
2023/01/24 01:36:36;;;;;;;17.90;12.63;;;1.80;99.90;;;;;;5051364;28;20667;-58
2023/01/24 01:39:02;;;;;;;24.50;17.93;;;1.90;99.90;;;;;;5050086;28;20845;-58
2023/01/24 01:41:28;;;;;;;16.97;13.17;;;1.90;99.90;;;;;;5046145;28;20842;-57
2023/01/24 01:46:45;;;;;;;18.57;13.17;;;1.90;99.90;;;;;;5041125;28;20586;-57
2023/01/24 01:49:23;;;;;;;17.13;12.47;;;1.90;99.90;;;;;;5050116;28;20282;-58
2023/01/24 01:51:54;;;;;;;17.03;11.80;;;1.90;99.90;;;;;;5044666;28;20225;-59
2023/01/24 01:54:27;;;;;;;18.87;13.63;;;1.90;99.90;;;;;;5052234;28;20182;-58
2023/01/24 01:57:07;;;;;;;19.93;14.90;;;1.90;99.90;;;;;;5045451;28;20224;-58
2023/01/24 01:59:43;;;;;;;20.90;15.27;;;1.90;99.90;;;;;;5049093;28;20222;-59
2023/01/24 02:02:10;;;;;;;18.70;14.40;;;1.90;99.90;;;;;;5048902;28;20786;-58
2023/01/24 02:04:38;;;;;;;17.23;12.23;;;2.00;99.90;;;;;;5054245;28;20330;-58
2023/01/24 02:07:16;;;;;;;18.47;12.13;;;1.90;99.90;;;;;;5053285;28;20747;-57
2023/01/24 02:09:45;;;;;;;16.23;11.77;;;1.90;99.90;;;;;;5047282;28;20232;-57
2023/01/24 02:12:15;;;;;;;14.70;10.97;;;1.90;99.90;;;;;;5049602;28;20730;-57
2023/01/24 02:17:27;;;;;;;14.90;9.70;;;1.90;99.90;;;;;;5051276;28;20283;-57
2023/01/24 02:20:03;;;;;;;11.80;9.57;;;1.80;99.90;;;;;;5050468;28;20622;-58
2023/01/24 02:22:40;;;;;;;9.77;8.13;;;1.70;99.90;;;;;;5050099;28;20207;-57
2023/01/24 02:25:22;;;;;;;11.17;8.77;;;1.60;99.90;;;;;;5046085;28;20279;-57
2023/01/24 02:27:47;;;;;;;8.40;7.53;;;1.60;99.90;;;;;;5041825;28;20205;-58
2023/01/24 02:30:13;;;;;;;8.13;7.33;;;1.60;99.90;;;;;;5047167;28;20792;-57
2023/01/24 02:32:39;;;;;;;8.20;6.90;;;1.60;99.90;;;;;;5056766;28;20458;-60
2023/01/24 02:35:05;;;;;;;10.83;7.77;;;1.60;99.90;;;;;;5053761;28;20708;-57
2023/01/24 02:37:33;;;;;;;9.37;8.33;;;1.60;99.90;;;;;;5051576;28;20197;-57
2023/01/24 02:40:05;;;;;;;25.93;18.43;;;1.60;99.90;;;;;;5054325;28;20234;-56
2023/01/24 02:42:36;;;;;;;15.10;9.93;;;1.60;99.90;;;;;;5058024;28;20591;-57
2023/01/24 02:45:24;;;;;;;13.03;9.43;;;1.50;99.90;;;;;;5054780;28;20195;-57
2023/01/24 02:47:52;;;;;;;11.53;8.87;;;1.50;99.90;;;;;;5052072;28;20202;-57
2023/01/24 02:50:20;;;;;;;11.30;8.50;;;1.50;99.90;;;;;;5053564;28;20233;-58
2023/01/24 02:55:30;;;;;;;16.13;11.63;;;1.60;99.90;;;;;;5047755;28;20207;-57
2023/01/24 02:58:06;;;;;;;20.97;15.43;;;1.60;99.90;;;;;;5049772;28;20204;-57
2023/01/24 03:00:41;;;;;;;11.43;9.67;;;1.60;99.90;;;;;;5058104;28;20215;-57
2023/01/24 03:03:08;;;;;;;23.13;16.50;;;1.60;99.90;;;;;;5057873;28;20195;-58
2023/01/24 03:05:56;;;;;;;16.60;11.80;;;1.60;99.90;;;;;;5058572;28;20205;-56
2023/01/24 03:08:24;;;;;;;23.87;16.10;;;1.60;99.90;;;;;;5054171;28;20568;-58
2023/01/24 03:10:49;;;;;;;17.00;10.50;;;1.60;99.90;;;;;;5049827;28;20207;-58
2023/01/24 03:35:08;;;;;;;8.77;7.87;;;1.60;99.90;;;;;;5049911;28;20205;-57
2023/01/24 03:40:18;;;;;;;12.23;9.03;;;1.60;99.90;;;;;;5048527;28;20252;-57
2023/01/24 03:42:49;;;;;;;13.03;9.97;;;1.60;99.90;;;;;;5048495;28;20222;-58
2023/01/24 03:45:24;;;;;;;9.13;8.13;;;1.60;99.90;;;;;;5051744;28;20201;-58
2023/01/24 03:48:04;;;;;;;11.90;8.53;;;1.60;99.90;;;;;;5052026;28;20199;-57
2023/01/24 03:53:22;;;;;;;15.20;10.90;;;1.50;99.90;;;;;;5051758;28;20247;-57
2023/01/24 03:55:52;;;;;;;12.63;10.13;;;1.50;99.90;;;;;;5054194;28;20213;-57
2023/01/24 03:58:18;;;;;;;12.80;10.50;;;1.50;99.90;;;;;;5055265;28;20244;-57
2023/01/24 04:00:43;;;;;;;11.33;8.97;;;1.50;99.90;;;;;;5052623;28;20256;-57
2023/01/24 04:03:09;;;;;;;11.37;8.77;;;1.50;99.90;;;;;;5060419;28;20281;-57
2023/01/24 04:05:35;;;;;;;17.17;11.77;;;1.50;99.90;;;;;;5065665;28;20185;-58
2023/01/24 04:08:01;;;;;;;12.70;8.60;;;1.50;99.90;;;;;;5047475;28;20224;-58
2023/01/24 04:10:27;;;;;;;12.33;7.97;;;1.50;99.90;;;;;;5048717;28;20217;-57
2023/01/24 04:12:54;;;;;;;7.87;7.07;;;1.50;99.90;;;;;;5048639;28;20201;-58
2023/01/24 04:15:24;;;;;;;13.57;10.13;;;1.50;99.90;;;;;;5048682;28;20202;-58
2023/01/24 04:17:50;;;;;;;10.20;8.33;;;1.50;99.90;;;;;;5048654;28;20233;-58
2023/01/24 04:20:16;;;;;;;11.60;8.47;;;1.50;99.90;;;;;;5042389;28;20465;-59
2023/01/24 04:22:42;;;;;;;13.77;9.63;;;1.50;99.90;;;;;;5057282;28;20796;-58
2023/01/24 04:25:08;;;;;;;9.67;8.67;;;1.50;99.90;;;;;;5051836;28;20663;-58
2023/01/24 04:27:35;;;;;;;8.87;7.80;;;1.50;99.90;;;;;;5054884;28;20619;-58
2023/01/24 04:30:01;;;;;;;11.50;9.17;;;1.50;99.90;;;;;;5052757;28;20216;-58
2023/01/24 04:32:28;;;;;;;11.40;8.77;;;1.50;99.90;;;;;;5055417;28;20202;-58
2023/01/24 04:34:54;;;;;;;9.80;7.90;;;1.50;99.90;;;;;;5056361;28;20202;-58
2023/01/24 04:37:19;;;;;;;10.10;7.80;;;1.50;99.90;;;;;;5052497;28;20197;-57
2023/01/24 04:39:45;;;;;;;9.40;6.60;;;1.50;99.90;;;;;;5051332;28;20222;-58
2023/01/24 04:42:10;;;;;;;10.33;7.73;;;1.50;99.90;;;;;;5047545;28;20197;-58
2023/01/24 04:44:36;;;;;;;11.23;9.00;;;1.50;99.90;;;;;;5052173;28;20223;-58
2023/01/24 04:47:01;;;;;;;8.87;8.00;;;1.50;99.90;;;;;;5044764;28;20213;-58
2023/01/24 04:49:26;;;;;;;8.10;7.30;;;1.60;99.90;;;;;;5046021;28;20252;-58
2023/01/24 04:51:52;;;;;;;8.23;7.10;;;1.50;99.90;;;;;;5050601;28;20210;-57
2023/01/24 04:54:18;;;;;;;9.90;8.00;;;1.50;99.90;;;;;;5051839;28;22647;-58
2023/01/24 04:56:43;;;;;;;12.17;7.60;;;1.50;99.90;;;;;;5052649;28;20574;-58
2023/01/24 04:59:11;;;;;;;10.30;8.03;;;1.40;99.90;;;;;;5048061;28;20570;-57
2023/01/24 05:01:37;;;;;;;9.80;8.73;;;1.40;99.90;;;;;;5054214;28;20198;-56
2023/01/24 05:04:03;;;;;;;10.90;8.23;;;1.40;99.90;;;;;;5055839;28;20912;-57
2023/01/24 05:06:30;;;;;;;8.37;6.87;;;1.50;99.90;;;;;;5055494;28;20224;-57
2023/01/24 05:08:56;;;;;;;9.93;7.53;;;1.50;99.90;;;;;;5053044;28;20286;-57
2023/01/24 05:11:23;;;;;;;10.60;7.40;;;1.40;99.90;;;;;;5054495;28;20231;-58
2023/01/24 05:13:49;;;;;;;7.43;6.70;;;1.40;99.90;;;;;;5054422;28;20212;-57
2023/01/24 05:16:15;;;;;;;8.43;6.33;;;1.40;99.90;;;;;;5050537;28;20207;-57
2023/01/24 05:18:40;;;;;;;8.37;7.37;;;1.40;99.90;;;;;;5054689;28;20194;-57
2023/01/24 05:21:12;;;;;;;8.07;7.10;;;1.40;99.90;;;;;;5053793;28;20241;-58
2023/01/24 05:23:38;;;;;;;10.07;7.20;;;1.40;99.90;;;;;;5052824;28;20623;-59
2023/01/24 05:26:04;;;;;;;8.00;6.60;;;1.40;99.90;;;;;;5050482;28;20288;-58
2023/01/24 05:28:30;;;;;;;9.57;8.27;;;1.40;99.90;;;;;;5055829;28;20279;-57
2023/01/24 05:31:00;;;;;;;8.53;7.40;;;1.40;99.90;;;;;;5049027;28;20212;-58
2023/01/24 05:33:25;;;;;;;8.13;7.23;;;1.40;99.90;;;;;;5048882;28;20501;-57
2023/01/24 05:36:03;;;;;;;8.43;7.57;;;1.40;99.90;;;;;;5052921;28;20260;-58
2023/01/24 05:38:29;;;;;;;9.73;8.57;;;1.40;99.90;;;;;;5052021;28;20203;-57
2023/01/24 05:41:02;;;;;;;12.97;8.00;;;1.40;99.90;;;;;;5053653;28;20217;-58
2023/01/24 05:43:28;;;;;;;11.67;8.87;;;1.30;99.90;;;;;;5046980;28;20192;-59
2023/01/24 05:45:59;;;;;;;12.73;9.73;;;1.30;99.90;;;;;;5054947;28;20267;-58
2023/01/24 05:48:24;;;;;;;10.40;8.63;;;1.30;99.90;;;;;;5054337;28;20307;-57
2023/01/24 05:50:50;;;;;;;10.37;8.73;;;1.30;99.90;;;;;;5053135;28;20202;-57
2023/01/24 05:53:15;;;;;;;9.30;8.30;;;1.40;99.90;;;;;;5047734;28;20228;-59
2023/01/24 05:55:41;;;;;;;7.83;7.00;;;1.40;99.90;;;;;;5053391;28;20207;-60
2023/01/24 05:58:06;;;;;;;9.00;7.90;;;1.40;99.90;;;;;;5052992;28;20231;-59
2023/01/24 06:00:31;;;;;;;10.27;8.10;;;1.30;99.90;;;;;;5053171;28;20693;-58
2023/01/24 06:03:03;;;;;;;8.50;7.10;;;1.30;99.90;;;;;;5052388;28;20193;-56
2023/01/24 06:05:29;;;;;;;8.67;7.80;;;1.40;99.90;;;;;;5051203;28;20182;-57
2023/01/24 06:07:54;;;;;;;8.17;7.20;;;1.40;99.90;;;;;;5051819;28;20207;-58
2023/01/24 06:10:20;;;;;;;9.47;7.17;;;1.40;99.90;;;;;;5055831;28;20230;-58
2023/01/24 06:12:45;;;;;;;10.53;7.67;;;1.50;99.90;;;;;;5001251;28;20681;-58
2023/01/24 06:15:10;;;;;;;9.50;8.60;;;1.50;99.90;;;;;;5050507;28;20235;-57
2023/01/24 06:17:36;;;;;;;9.40;8.40;;;1.40;99.90;;;;;;5057025;28;20210;-57
2023/01/24 06:20:02;;;;;;;13.53;9.80;;;1.40;99.90;;;;;;5055193;28;20277;-58
2023/01/24 06:22:36;;;;;;;13.70;9.27;;;1.40;99.90;;;;;;5056752;28;20260;-57
2023/01/24 06:25:02;;;;;;;13.13;9.43;;;1.40;99.90;;;;;;5058354;28;20292;-57
2023/01/24 06:27:27;;;;;;;11.87;8.83;;;1.40;99.90;;;;;;5057448;28;20744;-57
2023/01/24 06:29:53;;;;;;;11.30;8.80;;;1.30;99.90;;;;;;5055608;28;20287;-57
2023/01/24 06:32:28;;;;;;;13.57;9.37;;;1.30;99.90;;;;;;5058016;28;20283;-57
2023/01/24 06:34:56;;;;;;;12.17;10.13;;;1.30;99.90;;;;;;5058391;28;20534;-57
2023/01/24 06:37:43;;;;;;;11.90;9.27;;;1.40;99.90;;;;;;5052626;28;20207;-57
2023/01/24 06:40:10;;;;;;;12.90;9.63;;;1.40;99.90;;;;;;5049340;28;20963;-57
2023/01/24 06:42:36;;;;;;;12.47;9.30;;;1.40;99.90;;;;;;5051408;28;20207;-57
2023/01/24 06:45:02;;;;;;;12.07;8.87;;;1.40;99.90;;;;;;5054865;28;20381;-59
2023/01/24 06:47:28;;;;;;;12.47;10.00;;;1.40;99.90;;;;;;5060959;28;20289;-58
2023/01/24 06:49:54;;;;;;;13.47;8.93;;;1.40;99.90;;;;;;5059107;28;20759;-58
2023/01/24 06:52:20;;;;;;;14.53;9.67;;;1.40;99.90;;;;;;5059105;28;20205;-58
2023/01/24 06:54:45;;;;;;;12.70;9.33;;;1.40;99.90;;;;;;5056290;28;20217;-57
2023/01/24 06:57:11;;;;;;;12.33;9.30;;;1.40;99.90;;;;;;5055819;28;20212;-57
2023/01/24 06:59:37;;;;;;;15.23;9.70;;;1.40;99.90;;;;;;5055702;28;20240;-58
2023/01/24 07:02:03;;;;;;;13.97;9.60;;;1.40;99.90;;;;;;5053041;28;20210;-57
2023/01/24 07:04:28;;;;;;;13.57;9.13;;;1.40;99.90;;;;;;5060545;28;20203;-58
2023/01/24 07:06:54;;;;;;;14.93;9.67;;;1.30;99.90;;;;;;5061285;28;20591;-57
2023/01/24 07:09:20;;;;;;;12.87;9.17;;;1.40;99.90;;;;;;5056924;28;20250;-58
2023/01/24 07:11:49;;;;;;;16.83;9.60;;;1.40;99.90;;;;;;5050402;28;20796;-58
2023/01/24 07:14:15;;;;;;;14.70;9.57;;;1.30;99.90;;;;;;4994302;28;20210;-57
2023/01/24 07:16:40;;;;;;;11.73;9.33;;;1.30;99.90;;;;;;5050390;28;20201;-57
2023/01/24 07:19:12;;;;;;;12.20;9.63;;;1.30;99.90;;;;;;5057381;28;20224;-58
2023/01/24 07:21:39;;;;;;;13.17;9.40;;;1.30;99.90;;;;;;5050813;28;21106;-57
2023/01/24 07:24:22;;;;;;;12.10;8.67;;;1.30;99.90;;;;;;5049453;28;20247;-57
2023/01/24 07:26:50;;;;;;;14.00;8.90;;;1.30;99.90;;;;;;5049864;28;20208;-58
2023/01/24 07:29:16;;;;;;;11.30;9.03;;;1.30;99.90;;;;;;5048610;28;20213;-57
2023/01/24 07:31:42;;;;;;;13.07;9.23;;;1.40;99.90;;;;;;5054139;28;20242;-58
2023/01/24 07:34:07;;;;;;;10.07;9.00;;;1.40;99.90;;;;;;5055328;28;20510;-57
2023/01/24 07:36:33;;;;;;;13.10;9.17;;;1.40;99.90;;;;;;5050302;28;20211;-58
2023/01/24 07:38:58;;;;;;;11.63;9.10;;;1.50;99.90;;;;;;5052021;28;20281;-57
2023/01/24 07:41:24;;;;;;;11.70;9.30;;;1.50;99.90;;;;;;5054110;28;20582;-58
2023/01/24 07:43:50;;;;;;;10.87;8.70;;;1.60;99.90;;;;;;5046860;28;20226;-58
2023/01/24 07:46:15;;;;;;;16.43;9.50;;;1.70;99.90;;;;;;5051144;28;20219;-57
2023/01/24 07:48:41;;;;;;;12.27;8.87;;;1.70;99.90;;;;;;5053251;28;20225;-57
2023/01/24 07:51:06;;;;;;;16.10;9.07;;;1.80;99.90;;;;;;5055916;28;20918;-57
2023/01/24 07:53:32;;;;;;;10.73;9.43;;;1.80;99.90;;;;;;5053004;28;20213;-57
2023/01/24 07:56:01;;;;;;;9.80;8.80;;;1.80;99.90;;;;;;5055679;28;20283;-57
2023/01/24 07:58:28;;;;;;;11.10;8.90;;;1.80;99.90;;;;;;5056155;28;20669;-57
2023/01/24 08:00:53;;;;;;;11.00;8.37;;;1.80;99.90;;;;;;5055664;28;20221;-57
2023/01/24 08:03:19;;;;;;;10.93;8.97;;;1.80;99.90;;;;;;5056508;28;20264;-57
2023/01/24 08:05:44;;;;;;;11.93;9.73;;;1.80;99.90;;;;;;5056016;28;20565;-58
2023/01/24 08:08:10;;;;;;;12.80;8.80;;;1.80;99.90;;;;;;5053684;28;20229;-57
2023/01/24 08:10:36;;;;;;;10.70;8.90;;;1.80;99.90;;;;;;5056452;28;20291;-58
2023/01/24 08:13:01;;;;;;;11.83;9.97;;;1.80;99.90;;;;;;5010369;28;20194;-58
2023/01/24 08:15:27;;;;;;;11.83;8.93;;;1.80;99.90;;;;;;5053255;28;20236;-58
2023/01/24 08:17:52;;;;;;;9.80;8.60;;;1.80;99.90;;;;;;5051281;28;20207;-58
2023/01/24 08:20:18;;;;;;;11.43;8.30;;;1.90;99.90;;;;;;5054188;28;20702;-57
2023/01/24 08:22:43;;;;;;;13.63;8.47;;;1.90;99.90;;;;;;5053367;28;20697;-58
2023/01/24 08:25:09;;;;;;;12.90;9.07;;;1.90;99.90;;;;;;5052625;28;20222;-56
2023/01/24 08:27:39;;;;;;;12.47;9.03;;;2.00;99.90;;;;;;5049335;28;20201;-57
2023/01/24 08:30:05;;;;;;;13.50;9.37;;;1.90;99.90;;;;;;5046671;28;20284;-57
2023/01/24 08:32:31;;;;;;;10.80;8.73;;;1.90;99.90;;;;;;5055188;28;20205;-57
2023/01/24 08:34:57;;;;;;;10.97;8.57;;;1.90;99.90;;;;;;5054326;28;20884;-58
2023/01/24 08:37:23;;;;;;;11.47;9.00;;;1.90;99.90;;;;;;5053107;28;20201;-57
2023/01/24 08:39:49;;;;;;;12.13;8.10;;;2.00;99.90;;;;;;5050219;28;20307;-59
2023/01/24 08:42:14;;;;;;;15.50;9.37;;;2.00;99.90;;;;;;5043134;28;20296;-56
2023/01/24 08:44:40;;;;;;;15.50;8.93;;;2.00;99.90;;;;;;5051665;28;20279;-57
2023/01/24 08:47:05;;;;;;;12.13;8.23;;;2.10;99.90;;;;;;5050235;28;20202;-57
2023/01/24 08:49:31;;;;;;;11.97;8.37;;;2.20;99.90;;;;;;5054841;28;20288;-58
2023/01/24 08:51:59;;;;;;;15.10;8.53;;;2.20;99.90;;;;;;5053473;28;20579;-57
2023/01/24 08:54:28;;;;;;;16.33;9.10;;;2.20;99.90;;;;;;5051214;28;20212;-57
2023/01/24 08:56:54;;;;;;;15.13;8.97;;;2.30;99.90;;;;;;5052961;28;20217;-58
2023/01/24 08:59:20;;;;;;;14.93;9.77;;;2.20;99.90;;;;;;5050975;28;20303;-57
2023/01/24 09:01:45;;;;;;;14.77;9.10;;;2.30;99.90;;;;;;5050609;28;20205;-57
2023/01/24 09:04:12;;;;;;;14.37;8.70;;;2.40;99.90;;;;;;5051072;28;20256;-56
2023/01/24 09:06:37;;;;;;;12.20;8.63;;;2.40;99.90;;;;;;5048905;28;20213;-57
2023/01/24 09:09:03;;;;;;;17.10;9.47;;;2.50;99.90;;;;;;5052117;28;20193;-57
2023/01/24 09:11:29;;;;;;;15.57;10.33;;;2.60;99.90;;;;;;5041691;28;20214;-63
2023/01/24 09:13:55;;;;;;;15.30;9.93;;;2.70;99.90;;;;;;5001482;28;20210;-58
2023/01/24 09:16:20;;;;;;;12.43;9.07;;;2.80;99.90;;;;;;5044999;28;20209;-58
2023/01/24 09:18:46;;;;;;;15.53;9.83;;;2.80;99.90;;;;;;5039997;28;20621;-58
2023/01/24 09:21:12;;;;;;;14.07;10.63;;;2.80;99.90;;;;;;5039974;28;20219;-60
2023/01/24 09:23:37;;;;;;;17.90;10.67;;;2.90;99.90;;;;;;5040125;28;20206;-58
2023/01/24 09:26:03;;;;;;;21.17;11.37;;;3.00;99.90;;;;;;5045076;28;20194;-57
2023/01/24 09:28:29;;;;;;;21.97;11.27;;;3.00;99.90;;;;;;5040952;28;20198;-58
2023/01/24 09:30:54;;;;;;;18.90;10.60;;;3.00;99.90;;;;;;5048388;28;20199;-57
2023/01/24 09:33:20;;;;;;;17.67;10.23;;;3.00;99.90;;;;;;5049243;28;20576;-57
2023/01/24 09:35:53;;;;;;;24.97;11.77;;;3.00;99.90;;;;;;5044428;28;20292;-57
2023/01/24 09:38:19;;;;;;;18.50;11.10;;;3.10;99.90;;;;;;5044901;28;20347;-57
2023/01/24 09:40:53;;;;;;;20.50;10.93;;;3.10;99.90;;;;;;5049215;28;20300;-58
2023/01/24 09:43:36;;;;;;;21.10;11.37;;;3.10;99.90;;;;;;5040164;28;20201;-57
2023/01/24 09:46:18;;;;;;;21.60;12.77;;;3.10;99.90;;;;;;5046996;28;20664;-57
2023/01/24 09:48:47;;;;;;;19.67;10.73;;;3.10;99.90;;;;;;5041704;28;20312;-59
2023/01/24 09:51:19;;;;;;;27.50;13.17;;;3.10;99.90;;;;;;5043615;28;20287;-57
2023/01/24 09:53:50;;;;;;;25.13;13.43;;;3.20;99.90;;;;;;5052330;28;20273;-57
2023/01/24 09:56:30;;;;;;;23.27;12.57;;;3.20;99.90;;;;;;5038546;28;20266;-58
2023/01/24 09:59:09;;;;;;;26.77;13.43;;;3.20;99.90;;;;;;5048833;28;20266;-59
2023/01/24 10:01:38;;;;;;;33.03;12.97;;;3.30;99.90;;;;;;5037868;28;20230;-57
2023/01/24 10:04:08;;;;;;;29.27;14.83;;;3.40;99.90;;;;;;5042440;28;20517;-57
2023/01/24 10:06:33;;;;;;;27.17;14.83;;;3.40;99.90;;;;;;5049809;28;20205;-57
2023/01/24 10:09:12;;;;;;;25.90;12.93;;;3.50;99.90;;;;;;5051504;28;20194;-59
2023/01/24 10:12:18;;;;;;;26.43;13.17;;;3.50;99.90;;;;;;5044210;28;20204;-58
2023/01/24 10:15:04;;;;;;;25.07;12.23;;;3.60;99.90;;;;;;5032421;28;20216;-58
2023/01/24 10:17:51;;;;;;;25.60;14.07;;;3.70;99.90;;;;;;5050201;28;20248;-58
2023/01/24 10:20:26;;;;;;;24.37;12.97;;;3.80;99.90;;;;;;5043984;28;20268;-58
2023/01/24 10:23:08;;;;;;;30.77;14.93;;;3.90;99.90;;;;;;5050434;28;20668;-57
2023/01/24 10:25:48;;;;;;;30.73;14.33;;;4.00;99.90;;;;;;5040002;28;20202;-57
2023/01/24 10:28:28;;;;;;;29.40;13.23;;;4.00;99.90;;;;;;5048187;28;20205;-57
2023/01/24 10:31:05;;;;;;;30.63;14.27;;;4.00;99.90;;;;;;5052531;28;20208;-60
2023/01/24 10:33:36;;;;;;;31.83;14.20;;;4.10;99.90;;;;;;5049819;28;20280;-60
2023/01/24 10:37:03;;;;;;;28.97;15.00;;;4.20;99.90;;;;;;5049860;28;20325;-58
2023/01/24 10:39:29;;;;;;;37.30;17.47;;;4.30;99.90;;;;;;4944246;28;20222;-57
2023/01/24 10:41:54;;;;;;;38.10;17.23;;;4.40;99.90;;;;;;4937943;28;20746;-60
2023/01/24 10:44:29;;;;;;;39.17;18.87;;;4.40;99.90;;;;;;4992049;28;20210;-57
2023/01/24 10:47:22;;;;;;;38.67;18.17;;;4.40;99.90;;;;;;5054207;28;20197;-57
2023/01/24 10:50:04;;;;;;;35.97;17.63;;;4.40;99.90;;;;;;5047615;28;20236;-58
2023/01/24 10:52:31;;;;;;;33.83;15.87;;;4.40;99.90;;;;;;5054620;28;20429;-58
2023/01/24 10:55:01;;;;;;;36.73;17.50;;;4.30;99.90;;;;;;5041814;28;20199;-58
2023/01/24 10:57:48;;;;;;;37.27;17.43;;;4.30;99.90;;;;;;5042252;28;20210;-57
2023/01/24 11:00:35;;;;;;;34.27;15.27;;;4.30;99.90;;;;;;5041125;28;20222;-59
2023/01/24 11:03:04;;;;;;;40.10;17.50;;;4.30;99.90;;;;;;5051832;28;20197;-58
2023/01/24 11:05:43;;;;;;;36.20;16.10;;;4.30;99.90;;;;;;5047267;28;20253;-58
2023/01/24 11:08:21;;;;;;;49.33;20.27;;;4.30;99.90;;;;;;5051087;28;20292;-58
2023/01/24 11:10:51;;;;;;;38.27;17.70;;;4.30;99.90;;;;;;5014431;28;20205;-66
2023/01/24 11:13:29;;;;;;;35.03;19.33;;;4.30;99.90;;;;;;5050262;28;20281;-66
2023/01/24 11:16:16;;;;;;;40.70;18.30;;;4.30;99.90;;;;;;5041756;28;20211;-65
2023/01/24 11:18:52;;;;;;;44.30;20.47;;;4.30;99.90;;;;;;5040231;28;20198;-66
2023/01/24 11:21:19;;;;;;;42.10;19.47;;;4.30;99.90;;;;;;5039563;28;20214;-65
2023/01/24 11:23:45;;;;;;;35.83;18.43;;;4.40;99.90;;;;;;5053570;28;20240;-66
2023/01/24 11:26:45;;;;;;;38.57;19.13;;;4.40;99.90;;;;;;5048944;28;20199;-65
2023/01/24 11:29:17;;;;;;;38.87;18.00;;;4.40;99.90;;;;;;5028553;28;20216;-65
2023/01/24 11:32:19;;;;;;;46.47;22.90;;;4.40;99.90;;;;;;5039730;28;20343;-65
2023/01/24 11:35:03;;;;;;;45.30;20.83;;;4.40;99.90;;;;;;4963283;28;20219;-65
2023/01/24 11:37:59;;;;;;;53.93;21.40;;;4.40;99.90;;;;;;5040410;28;20238;-64
2023/01/24 11:40:40;;;;;;;46.20;21.67;;;4.40;99.90;;;;;;5047894;28;20856;-73
2023/01/24 11:43:35;;;;;;;47.27;22.33;;;4.20;99.90;;;;;;5037598;28;20203;-58
2023/01/24 11:46:22;;;;;;;55.43;20.60;;;4.30;99.90;;;;;;5045723;28;20256;-58
2023/01/24 11:48:54;;;;;;;45.47;22.03;;;4.50;99.90;;;;;;5042982;28;20636;-60
2023/01/24 11:51:42;;;;;;;50.77;21.33;;;4.60;99.90;;;;;;5048876;28;20263;-58
2023/01/24 11:54:10;;;;;;;46.77;21.57;;;4.60;99.90;;;;;;5044542;28;20675;-59
2023/01/24 11:56:44;;;;;;;57.67;24.60;;;4.70;99.90;;;;;;5040268;28;20206;-59
2023/01/24 11:59:38;;;;;;;52.10;21.60;;;4.70;99.90;;;;;;5048372;28;20217;-58
2023/01/24 12:02:31;;;;;;;54.73;21.90;;;4.70;99.90;;;;;;5046009;28;20697;-59
2023/01/24 12:05:30;;;;;;;51.23;23.60;;;4.60;99.90;;;;;;5041295;28;20592;-57
2023/01/24 12:08:11;;;;;;;46.13;21.87;;;4.60;99.90;;;;;;5048843;28;20337;-57
2023/01/24 12:11:02;;;;;;;44.40;20.57;;;4.60;99.90;;;;;;4984302;28;20213;-56
2023/01/24 12:13:48;;;;;;;48.87;22.87;;;4.60;99.90;;;;;;5048657;28;20202;-57
2023/01/24 12:16:46;;;;;;;50.83;21.80;;;4.70;99.90;;;;;;5033903;28;20199;-56
2023/01/24 12:19:33;;;;;;;45.00;22.00;;;4.80;99.90;;;;;;5041483;28;20197;-57
2023/01/24 12:21:59;;;;;;;44.50;20.03;;;4.80;99.90;;;;;;5031021;28;20211;-57
2023/01/24 12:24:30;;;;;;;47.13;21.27;;;4.80;99.90;;;;;;5038703;28;20202;-56
2023/01/24 12:27:00;;;;;;;44.43;20.80;;;4.70;99.90;;;;;;5032984;28;20594;-56
2023/01/24 12:29:35;;;;;;;45.77;20.70;;;4.70;99.90;;;;;;5038027;28;20202;-57
2023/01/24 12:32:22;;;;;;;43.53;21.37;;;4.80;99.90;;;;;;5028550;28;20316;-56
2023/01/24 12:35:04;;;;;;;43.07;20.57;;;4.80;99.90;;;;;;5031495;28;20224;-57
2023/01/24 12:37:45;;;;;;;42.67;21.70;;;4.80;99.90;;;;;;5048656;28;20194;-56
2023/01/24 12:40:13;;;;;;;44.20;20.60;;;4.80;99.90;;;;;;5036384;28;20300;-57
2023/01/24 12:43:31;;;;;;;49.80;22.07;;;4.80;99.90;;;;;;5040436;28;20201;-58
2023/01/24 12:46:04;;;;;;;50.43;21.03;;;4.80;99.90;;;;;;4957784;28;20201;-57
2023/01/24 12:48:39;;;;;;;44.93;19.70;;;4.80;99.90;;;;;;4969459;28;20219;-56
2023/01/24 12:51:26;;;;;;;46.17;19.20;;;4.80;99.90;;;;;;5022856;28;20256;-57
2023/01/24 12:54:14;;;;;;;47.83;21.37;;;4.80;99.90;;;;;;5052734;28;20201;-57
2023/01/24 12:57:01;;;;;;;47.57;19.73;;;4.80;99.90;;;;;;5041367;28;20770;-56
2023/01/24 12:59:28;;;;;;;40.77;20.53;;;4.80;99.90;;;;;;5044198;28;20199;-56
2023/01/24 13:01:56;;;;;;;44.77;19.47;;;4.80;99.90;;;;;;5047651;28;20551;-57
2023/01/24 13:04:42;;;;;;;47.70;21.73;;;4.80;99.90;;;;;;5050364;28;20186;-55
2023/01/24 13:07:29;;;;;;;38.57;17.23;;;4.80;99.90;;;;;;5048782;28;20186;-56
2023/01/24 13:10:10;;;;;;;40.27;18.80;;;4.80;99.90;;;;;;4999349;28;20218;-54
2023/01/24 13:12:35;;;;;;;37.33;18.40;;;4.70;99.90;;;;;;5051321;28;20218;-56
2023/01/24 13:15:21;;;;;;;47.07;20.40;;;4.70;99.90;;;;;;5051935;28;20197;-56
2023/01/24 13:18:24;;;;;;;41.33;18.80;;;4.70;99.90;;;;;;5050241;28;20194;-55
2023/01/24 13:21:11;;;;;;;43.83;20.37;;;4.70;99.90;;;;;;5052820;28;20245;-56
2023/01/24 13:24:22;;;;;;;41.70;18.40;;;4.60;99.90;;;;;;5042389;28;20260;-56
2023/01/24 13:27:07;;;;;;;40.00;17.43;;;4.50;99.90;;;;;;5039049;28;20363;-54
2023/01/24 13:30:02;;;;;;;46.93;20.20;;;4.50;99.90;;;;;;5036469;28;20668;-54
2023/01/24 13:32:30;;;;;;;44.93;19.57;;;4.50;99.90;;;;;;5035935;28;20197;-54
2023/01/24 13:34:57;;;;;;;47.37;20.47;;;4.50;99.90;;;;;;5039218;28;20699;-55
2023/01/24 13:37:26;;;;;;;49.77;20.20;;;4.50;99.90;;;;;;5038875;28;20202;-59
2023/01/24 13:40:04;;;;;;;36.30;19.13;;;4.50;99.90;;;;;;5048740;28;20210;-55